createdAt,value
2018-05-09T00:02:02.883Z,99132
2018-05-09T00:04:31.145Z,99143
2018-05-09T00:06:59.247Z,99132
2018-05-09T00:09:27.352Z,99127
2018-05-09T00:11:56.239Z,99135
2018-05-09T00:14:25.119Z,99126
2018-05-09T00:16:53.230Z,99131
2018-05-09T00:19:22.111Z,99126
2018-05-09T00:21:50.985Z,99125
2018-05-09T00:24:19.097Z,99125
2018-05-09T00:26:47.215Z,99115
2018-05-09T00:29:15.345Z,99120
2018-05-09T00:31:44.216Z,99119
2018-05-09T00:34:12.335Z,99113
2018-05-09T00:36:40.439Z,99112
2018-05-09T00:39:08.555Z,99107
2018-05-09T00:41:37.450Z,99096
2018-05-09T00:44:05.556Z,99104
2018-05-09T00:46:33.686Z,99098
2018-05-09T00:49:01.793Z,99092
2018-05-09T00:51:30.663Z,99095
2018-05-09T00:54:16.816Z,99093
2018-05-09T00:56:44.926Z,99092
2018-05-09T00:59:13.067Z,99096
2018-05-09T01:01:41.189Z,99097
2018-05-09T01:04:09.335Z,99120
2018-05-09T01:06:37.448Z,99095
2018-05-09T01:09:06.450Z,99118
2018-05-09T01:11:35.323Z,99110
2018-05-09T01:14:03.421Z,99116
2018-05-09T01:16:32.302Z,99116
2018-05-09T01:19:00.405Z,99113
2018-05-09T01:21:29.285Z,99115
2018-05-09T01:23:58.169Z,99104
2018-05-09T01:26:26.282Z,99107
2018-05-09T01:28:54.397Z,99111
2018-05-09T01:31:22.558Z,99100
2018-05-09T01:33:50.666Z,99093
2018-05-09T01:36:18.772Z,99109
2018-05-09T01:38:47.658Z,99096
2018-05-09T01:41:15.762Z,99098
2018-05-09T01:43:43.868Z,99102
2018-05-09T01:46:11.992Z,99103
2018-05-09T01:48:40.905Z,99094
2018-05-09T01:51:09.782Z,99090
2018-05-09T01:53:38.662Z,99089
2018-05-09T01:56:06.782Z,99088
2018-05-09T01:58:34.891Z,99088
2018-05-09T02:01:03.013Z,99088
2018-05-09T02:03:31.893Z,99082
2018-05-09T02:06:00.097Z,99088
2018-05-09T02:08:28.122Z,99081
2018-05-09T02:10:56.256Z,99088
2018-05-09T02:13:24.371Z,99084
2018-05-09T02:15:53.241Z,99085
2018-05-09T02:18:21.364Z,99081
2018-05-09T02:20:49.475Z,99073
2018-05-09T02:23:18.355Z,99080
2018-05-09T02:25:47.242Z,99073
2018-05-09T02:28:15.371Z,99070
2018-05-09T02:30:43.776Z,99074
2018-05-09T02:33:11.882Z,99073
2018-05-09T02:35:40.779Z,99062
2018-05-09T02:38:08.884Z,99059
2018-05-09T02:40:37.002Z,99062
2018-05-09T02:43:05.103Z,99074
2018-05-09T02:45:33.242Z,99054
2018-05-09T02:48:01.353Z,99052
2018-05-09T02:50:29.481Z,99053
2018-05-09T02:52:57.586Z,99054
2018-05-09T02:55:25.685Z,99049
2018-05-09T02:57:53.793Z,99041
2018-05-09T03:00:21.897Z,99040
2018-05-09T03:02:50.021Z,99034
2018-05-09T03:05:18.163Z,99039
2018-05-09T03:07:46.294Z,99029
2018-05-09T03:10:15.165Z,99031
2018-05-09T03:12:43.275Z,99031
2018-05-09T03:15:11.391Z,99024
2018-05-09T03:17:39.495Z,99025
2018-05-09T03:20:07.623Z,99028
2018-05-09T03:22:35.722Z,99033
2018-05-09T03:25:03.833Z,99031
2018-05-09T03:27:31.950Z,99040
2018-05-09T03:30:00.047Z,99042
2018-05-09T03:32:28.173Z,99049
2018-05-09T03:34:57.049Z,99037
2018-05-09T03:37:25.264Z,99039
2018-05-09T03:39:53.294Z,99049
2018-05-09T03:42:21.393Z,99040
2018-05-09T03:44:49.508Z,99042
2018-05-09T03:47:17.634Z,99049
2018-05-09T03:49:45.864Z,99059
2018-05-09T03:52:13.975Z,99055
2018-05-09T03:54:42.100Z,99061
2018-05-09T03:57:10.973Z,99064
2018-05-09T03:59:39.093Z,99067
2018-05-09T04:02:25.001Z,99063
2018-05-09T04:05:10.927Z,99061
2018-05-09T04:07:57.928Z,99056
2018-05-09T04:10:26.809Z,99069
2018-05-09T04:12:54.933Z,99070
2018-05-09T04:15:23.076Z,99068
2018-05-09T04:17:51.183Z,99069
2018-05-09T04:20:19.301Z,99061
2018-05-09T04:22:47.415Z,99059
2018-05-09T04:25:16.299Z,99043
2018-05-09T04:27:44.418Z,99047
2018-05-09T04:30:12.526Z,99052
2018-05-09T04:32:40.653Z,99052
2018-05-09T04:35:09.533Z,99057
2018-05-09T04:37:38.405Z,99054
2018-05-09T04:40:06.539Z,99060
2018-05-09T04:42:34.641Z,99054
2018-05-09T04:45:02.779Z,99054
2018-05-09T04:47:30.890Z,99053
2018-05-09T04:49:59.023Z,99055
2018-05-09T04:52:27.891Z,99055
2018-05-09T04:54:56.025Z,99055
2018-05-09T04:57:24.118Z,99055
2018-05-09T04:59:52.253Z,99042
2018-05-09T05:02:21.121Z,99042
2018-05-09T05:04:49.224Z,99047
2018-05-09T05:07:18.110Z,99038
2018-05-09T05:09:46.988Z,99040
2018-05-09T05:12:15.107Z,99030
2018-05-09T05:14:43.202Z,99040
2018-05-09T05:17:11.362Z,99040
2018-05-09T05:19:39.461Z,99030
2018-05-09T05:22:07.574Z,99036
2018-05-09T05:24:35.690Z,99027
2018-05-09T05:27:03.840Z,99029
2018-05-09T05:29:32.713Z,99034
2018-05-09T05:32:00.823Z,99041
2018-05-09T05:34:29.695Z,99032
2018-05-09T05:36:57.807Z,99030
2018-05-09T05:39:25.933Z,99027
2018-05-09T05:41:54.046Z,99036
2018-05-09T05:44:22.922Z,99032
2018-05-09T05:46:51.019Z,99030
2018-05-09T05:49:19.918Z,99028
2018-05-09T05:51:48.806Z,99029
2018-05-09T05:54:17.679Z,99023
2018-05-09T05:56:45.952Z,99026
2018-05-09T05:59:14.064Z,99024
2018-05-09T06:01:42.937Z,99026
2018-05-09T06:04:11.047Z,99020
2018-05-09T06:06:39.160Z,99012
2018-05-09T06:09:07.280Z,99028
2018-05-09T06:11:36.202Z,99026
2018-05-09T06:14:04.317Z,99025
2018-05-09T06:16:32.434Z,99030
2018-05-09T06:19:01.303Z,99030
2018-05-09T06:21:29.428Z,99031
2018-05-09T06:23:57.532Z,99040
2018-05-09T06:26:25.684Z,99049
2018-05-09T06:28:53.787Z,99042
2018-05-09T06:31:21.930Z,99042
2018-05-09T06:33:50.029Z,99041
2018-05-09T06:36:18.117Z,99044
2018-05-09T06:38:46.234Z,99048
2018-05-09T06:41:14.344Z,99043
2018-05-09T06:43:42.491Z,99043
2018-05-09T06:46:10.575Z,99038
2018-05-09T06:48:39.453Z,99050
2018-05-09T06:51:07.559Z,99042
2018-05-09T06:53:35.676Z,99040
2018-05-09T06:56:03.773Z,99038
2018-05-09T06:58:31.893Z,99041
2018-05-09T07:01:00.006Z,99043
2018-05-09T07:03:28.123Z,99050
2018-05-09T07:05:56.262Z,99059
2018-05-09T07:08:24.377Z,99059
2018-05-09T07:10:52.495Z,99051
2018-05-09T07:13:20.608Z,99047
2018-05-09T07:15:48.730Z,99055
2018-05-09T07:18:16.863Z,99038
2018-05-09T07:20:44.979Z,99029
2018-05-09T07:23:13.927Z,99037
2018-05-09T07:25:42.755Z,99035
2018-05-09T07:28:11.635Z,99035
2018-05-09T07:30:40.537Z,99043
2018-05-09T07:33:08.652Z,99043
2018-05-09T07:35:36.773Z,99048
2018-05-09T07:38:04.900Z,99051
2018-05-09T07:40:33.026Z,99060
2018-05-09T07:43:01.229Z,99053
2018-05-09T07:45:30.099Z,99057
2018-05-09T07:47:58.327Z,99049
2018-05-09T07:50:26.355Z,99042
2018-05-09T07:52:54.471Z,99044
2018-05-09T07:55:23.355Z,99048
2018-05-09T07:57:52.225Z,99034
2018-05-09T08:00:20.342Z,99047
2018-05-09T08:02:49.214Z,99036
2018-05-09T08:05:17.335Z,99031
2018-05-09T08:07:45.442Z,99049
2018-05-09T08:10:13.560Z,99048
2018-05-09T08:12:42.430Z,99044
2018-05-09T08:15:10.558Z,99040
2018-05-09T08:17:38.666Z,99039
2018-05-09T08:20:06.781Z,99040
2018-05-09T08:22:35.673Z,99038
2018-05-09T08:25:04.551Z,99053
2018-05-09T08:27:32.657Z,99057
2018-05-09T08:30:01.537Z,99054
2018-05-09T08:32:29.672Z,99064
2018-05-09T08:34:57.778Z,99052
2018-05-09T08:37:25.901Z,99056
2018-05-09T08:39:53.998Z,99047
2018-05-09T08:42:22.138Z,99050
2018-05-09T08:44:51.005Z,99038
2018-05-09T08:47:19.184Z,99042
2018-05-09T08:49:47.245Z,99030
2018-05-09T08:52:15.354Z,99036
2018-05-09T08:54:44.234Z,99032
2018-05-09T08:57:12.347Z,99028
2018-05-09T08:59:40.510Z,99035
2018-05-09T09:02:09.379Z,99050
2018-05-09T09:04:37.501Z,99044
2018-05-09T09:07:05.617Z,99049
2018-05-09T09:09:33.732Z,99043
2018-05-09T09:12:02.609Z,99048
2018-05-09T09:14:31.489Z,99053
2018-05-09T09:16:59.611Z,99051
2018-05-09T09:19:28.481Z,99055
2018-05-09T09:21:56.598Z,99053
2018-05-09T09:24:24.700Z,99039
2018-05-09T09:26:52.851Z,99035
2018-05-09T09:29:20.961Z,99041
2018-05-09T09:31:49.080Z,99053
2018-05-09T09:34:17.953Z,99038
2018-05-09T09:36:46.053Z,99041
2018-05-09T09:39:14.953Z,99035
2018-05-09T09:41:43.820Z,99033
2018-05-09T09:44:11.946Z,99029
2018-05-09T09:46:40.055Z,99025
2018-05-09T09:49:08.160Z,99028
2018-05-09T09:51:37.047Z,99030
2018-05-09T09:54:05.153Z,99019
2018-05-09T09:56:33.269Z,99023
2018-05-09T09:59:01.378Z,99027
2018-05-09T10:01:29.510Z,99027
2018-05-09T10:03:57.652Z,99024
2018-05-09T10:06:26.527Z,99030
2018-05-09T10:08:54.649Z,99023
2018-05-09T10:11:22.755Z,99028
2018-05-09T10:13:50.862Z,99020
2018-05-09T10:16:19.090Z,99026
2018-05-09T10:18:47.110Z,99018
2018-05-09T10:21:15.224Z,99018
2018-05-09T10:23:43.325Z,99003
2018-05-09T10:26:11.438Z,99012
2018-05-09T10:28:39.562Z,98996
2018-05-09T10:31:07.678Z,99001
2018-05-09T10:33:35.778Z,99010
2018-05-09T10:36:03.909Z,99003
2018-05-09T10:38:32.013Z,99005
2018-05-09T10:41:00.110Z,99001
2018-05-09T10:43:28.217Z,99007
2018-05-09T10:45:56.330Z,99004
2018-05-09T10:48:25.208Z,98997
2018-05-09T10:50:53.378Z,98997
2018-05-09T10:53:21.452Z,98997
2018-05-09T10:55:49.547Z,98992
2018-05-09T10:58:17.686Z,98985
2018-05-09T11:00:46.569Z,98990
2018-05-09T11:03:15.439Z,98996
2018-05-09T11:05:43.554Z,99002
2018-05-09T11:08:12.439Z,98998
2018-05-09T11:10:41.312Z,99008
2018-05-09T11:13:09.503Z,99007
2018-05-09T11:15:38.391Z,99012
2018-05-09T11:18:06.493Z,98989
2018-05-09T11:20:35.376Z,98987
2018-05-09T11:23:04.251Z,98988
2018-05-09T11:25:32.373Z,98991
2018-05-09T11:28:00.484Z,98987
2018-05-09T11:30:28.599Z,98979
2018-05-09T11:32:57.492Z,98973
2018-05-09T11:35:25.602Z,98989
2018-05-09T11:37:54.715Z,98976
2018-05-09T11:40:22.983Z,98984
2018-05-09T11:42:51.097Z,98973
2018-05-09T11:45:19.802Z,98968
2018-05-09T11:47:48.911Z,98968
2018-05-09T11:50:17.017Z,98969
2018-05-09T11:52:45.153Z,98966
2018-05-09T11:55:13.972Z,98959
2018-05-09T11:57:42.852Z,98959
2018-05-09T12:00:10.973Z,98955
2018-05-09T12:02:39.127Z,98953
2018-05-09T12:05:07.209Z,98963
2018-05-09T12:07:36.073Z,98950
2018-05-09T12:10:04.194Z,98960
2018-05-09T12:12:32.297Z,98958
2018-05-09T12:15:00.414Z,98961
2018-05-09T12:17:28.509Z,98951
2018-05-09T12:19:56.656Z,98947
2018-05-09T12:22:24.750Z,98945
2018-05-09T12:24:53.629Z,98940
2018-05-09T12:27:21.736Z,98935
2018-05-09T12:29:50.622Z,98946
2018-05-09T12:32:19.497Z,98932
2018-05-09T12:34:47.689Z,98932
2018-05-09T12:37:16.553Z,98931
2018-05-09T12:39:44.675Z,98929
2018-05-09T12:42:12.804Z,98921
2018-05-09T12:44:41.143Z,98923
2018-05-09T12:47:09.249Z,98914
2018-05-09T12:49:37.362Z,98912
2018-05-09T12:52:05.494Z,98918
2018-05-09T12:54:33.670Z,98910
2018-05-09T12:57:02.520Z,98897
2018-05-09T12:59:31.413Z,98914
2018-05-09T13:01:59.534Z,98898
2018-05-09T13:04:27.646Z,98894
2018-05-09T13:06:55.780Z,98893
2018-05-09T13:09:23.896Z,98900
2018-05-09T13:11:52.688Z,98879
2018-05-09T13:14:20.829Z,98873
2018-05-09T13:16:48.950Z,98876
2018-05-09T13:19:17.057Z,98861
2018-05-09T13:21:45.973Z,98857
2018-05-09T13:24:14.098Z,98858
2018-05-09T13:26:42.221Z,98854
2018-05-09T13:29:10.340Z,98844
2018-05-09T13:31:38.549Z,98839
2018-05-09T13:34:06.595Z,98839
2018-05-09T13:36:34.723Z,98836
2018-05-09T13:39:03.595Z,98835
2018-05-09T13:41:31.719Z,98826
2018-05-09T13:43:59.838Z,98819
2018-05-09T13:46:28.043Z,98823
2018-05-09T13:48:56.088Z,98826
2018-05-09T13:51:24.196Z,98841
2018-05-09T13:53:53.097Z,98827
2018-05-09T13:56:21.974Z,98846
2018-05-09T13:58:50.094Z,98830
2018-05-09T14:01:18.204Z,98829
2018-05-09T14:03:46.334Z,98821
2018-05-09T14:06:14.442Z,98837
2018-05-09T14:08:42.558Z,98822
2018-05-09T14:11:11.453Z,98822
2018-05-09T14:13:39.579Z,98813
2018-05-09T14:16:07.691Z,98816
2018-05-09T14:18:35.809Z,98826
2018-05-09T14:21:03.938Z,98821
2018-05-09T14:23:32.052Z,98823
2018-05-09T14:26:00.938Z,98826
2018-05-09T14:28:29.058Z,98820
2018-05-09T14:30:57.170Z,98824
2018-05-09T14:33:25.285Z,98815
2018-05-09T14:35:54.172Z,98823
2018-05-09T14:38:23.045Z,98834
2018-05-09T14:40:51.205Z,98850
2018-05-09T14:43:19.328Z,98843
2018-05-09T14:45:48.250Z,98840
2018-05-09T14:48:16.378Z,98838
2018-05-09T14:50:44.486Z,98839
2018-05-09T14:53:12.623Z,98834
2018-05-09T14:55:40.744Z,98830
2018-05-09T14:58:08.877Z,98828
2018-05-09T15:00:36.990Z,98839
2018-05-09T15:03:05.889Z,98844
2018-05-09T15:05:33.995Z,98825
2018-05-09T15:08:02.095Z,98826
2018-05-09T15:10:30.213Z,98816
2018-05-09T15:12:59.095Z,98809
2018-05-09T15:15:27.997Z,98809
2018-05-09T15:17:56.875Z,98805
2018-05-09T15:20:24.999Z,98816
2018-05-09T15:22:53.115Z,98814
2018-05-09T15:25:21.325Z,98813
2018-05-09T15:27:49.370Z,98800
2018-05-09T15:30:17.515Z,98807
2018-05-09T15:32:45.658Z,98787
2018-05-09T15:35:13.784Z,98792
2018-05-09T15:37:43.332Z,98787
2018-05-09T15:40:12.223Z,98795
2018-05-09T15:42:40.402Z,98777
2018-05-09T15:45:08.530Z,98780
2018-05-09T15:47:36.661Z,98791
2018-05-09T15:50:05.501Z,98796
2018-05-09T15:52:33.671Z,98806
2018-05-09T15:55:01.786Z,98798
2018-05-09T15:57:29.895Z,98787
2018-05-09T15:59:58.045Z,98785
2018-05-09T16:02:26.169Z,98796
2018-05-09T16:04:54.409Z,98794
2018-05-09T16:07:22.464Z,98822
2018-05-09T16:09:50.588Z,98800
2018-05-09T16:12:19.502Z,98805
2018-05-09T16:14:47.643Z,98802
2018-05-09T16:17:15.766Z,98796
2018-05-09T16:19:43.882Z,98798
2018-05-09T16:22:12.020Z,98786
2018-05-09T16:24:40.143Z,98802
2018-05-09T16:27:08.266Z,98795
2018-05-09T16:29:36.376Z,98792
2018-05-09T16:32:04.524Z,98779
2018-05-09T16:34:32.647Z,98791
2018-05-09T16:37:00.781Z,98791
2018-05-09T16:39:28.905Z,98791
2018-05-09T16:41:57.052Z,98784
2018-05-09T16:44:25.188Z,98792
2018-05-09T16:46:54.058Z,98788
2018-05-09T16:49:22.288Z,98798
2018-05-09T16:51:50.392Z,98784
2018-05-09T16:54:18.510Z,98795
2018-05-09T16:56:47.389Z,98797
2018-05-09T16:59:15.518Z,98797
2018-05-09T17:01:43.628Z,98788
2018-05-09T17:04:11.742Z,98794
2018-05-09T17:06:40.606Z,98795
2018-05-09T17:09:08.727Z,98793
2018-05-09T17:11:36.845Z,98791
2018-05-09T17:14:04.990Z,98779
2018-05-09T17:16:33.107Z,98783
2018-05-09T17:19:01.208Z,98796
2018-05-09T17:21:47.234Z,98784
2018-05-09T17:24:15.373Z,98792
2018-05-09T17:26:43.498Z,98784
2018-05-09T17:29:11.617Z,98783
2018-05-09T17:31:39.729Z,98779
2018-05-09T17:34:07.840Z,98779
2018-05-09T17:36:35.971Z,98774
2018-05-09T17:39:04.848Z,98772
2018-05-09T17:41:32.978Z,98774
2018-05-09T17:44:01.170Z,98782
2018-05-09T17:46:29.282Z,98778
2018-05-09T17:48:57.405Z,98772
2018-05-09T17:51:25.514Z,98774
2018-05-09T17:53:53.636Z,98770
2018-05-09T17:56:22.558Z,98776
2018-05-09T17:58:50.794Z,98774
2018-05-09T18:01:19.027Z,98769
2018-05-09T18:03:47.173Z,98770
2018-05-09T18:06:15.375Z,98770
2018-05-09T18:08:43.516Z,98762
2018-05-09T18:11:12.407Z,98768
2018-05-09T18:13:41.295Z,98771
2018-05-09T18:16:09.432Z,98766
2018-05-09T18:18:37.558Z,98766
2018-05-09T18:21:05.673Z,98775
2018-05-09T18:23:33.801Z,98775
2018-05-09T18:26:02.141Z,98782
2018-05-09T18:28:30.281Z,98778
2018-05-09T18:30:59.163Z,98780
2018-05-09T18:33:27.302Z,98776
2018-05-09T18:35:55.442Z,98770
2018-05-09T18:38:23.562Z,98776
2018-05-09T18:40:51.683Z,98775
2018-05-09T18:43:20.596Z,98771
2018-05-09T18:45:48.705Z,98774
2018-05-09T18:48:16.824Z,98766
2018-05-09T18:50:44.945Z,98767
2018-05-09T18:53:13.069Z,98769
2018-05-09T18:55:41.187Z,98768
2018-05-09T18:58:09.295Z,98764
2018-05-09T19:00:37.446Z,98771
2018-05-09T19:03:05.558Z,98774
2018-05-09T19:05:33.668Z,98765
2018-05-09T19:08:02.631Z,98772
2018-05-09T19:10:30.780Z,98778
2018-05-09T19:12:58.889Z,98773
2018-05-09T19:15:27.012Z,98773
2018-05-09T19:17:55.893Z,98782
2018-05-09T19:20:24.772Z,98785
2018-05-09T19:22:52.877Z,98792
2018-05-09T19:25:21.760Z,98794
2018-05-09T19:27:50.642Z,98793
2018-05-09T19:30:18.751Z,98797
2018-05-09T19:32:46.864Z,98801
2018-05-09T19:35:14.975Z,98798
2018-05-09T19:37:43.109Z,98805
2018-05-09T19:40:12.870Z,98802
2018-05-09T19:42:41.785Z,98801
2018-05-09T19:45:10.669Z,98802
2018-05-09T19:47:39.553Z,98801
2018-05-09T19:50:07.693Z,98796
2018-05-09T19:52:35.792Z,98797
2018-05-09T19:55:03.953Z,98802
2018-05-09T19:57:32.049Z,98806
2018-05-09T20:00:00.190Z,98795
2018-05-09T20:02:28.317Z,98799
2018-05-09T20:04:57.209Z,98802
2018-05-09T20:07:25.343Z,98802
2018-05-09T20:09:53.487Z,98806
2018-05-09T20:12:22.397Z,98806
2018-05-09T20:14:50.516Z,98800
2018-05-09T20:17:18.663Z,98800
2018-05-09T20:19:46.783Z,98800
2018-05-09T20:22:14.923Z,98807
2018-05-09T20:24:43.045Z,98800
2018-05-09T20:27:11.949Z,98799
2018-05-09T20:29:40.836Z,98797
2018-05-09T20:32:26.846Z,98783
2018-05-09T20:34:54.974Z,98787
2018-05-09T20:37:23.095Z,98791
2018-05-09T20:39:51.993Z,98782
2018-05-09T20:42:20.874Z,98781
2018-05-09T20:44:49.778Z,98793
2018-05-09T20:47:18.677Z,98797
2018-05-09T20:49:47.607Z,98793
2018-05-09T20:52:15.722Z,98785
2018-05-09T20:54:43.849Z,98784
2018-05-09T20:57:11.960Z,98784
2018-05-09T20:59:40.877Z,98797
2018-05-09T21:02:08.986Z,98793
2018-05-09T21:04:37.106Z,98797
2018-05-09T21:07:06.002Z,98794
2018-05-09T21:09:34.136Z,98797
2018-05-09T21:12:10.110Z,98791
2018-05-09T21:14:38.311Z,98807
2018-05-09T21:17:07.163Z,98801
2018-05-09T21:19:35.281Z,98802
2018-05-09T21:22:03.412Z,98802
2018-05-09T21:24:32.278Z,98800
2018-05-09T21:27:00.438Z,98803
2018-05-09T21:29:28.566Z,98799
2018-05-09T21:31:57.481Z,98803
2018-05-09T21:34:25.613Z,98805
2018-05-09T21:36:53.713Z,98805
2018-05-09T21:39:22.622Z,98800
2018-05-09T21:41:50.732Z,98804
2018-05-09T21:44:18.872Z,98799
2018-05-09T21:46:46.991Z,98811
2018-05-09T21:49:15.143Z,98812
2018-05-09T21:51:43.254Z,98803
2018-05-09T21:54:11.420Z,98809
2018-05-09T21:56:39.541Z,98802
2018-05-09T21:59:08.414Z,98805
2018-05-09T22:01:36.538Z,98807
2018-05-09T22:04:04.663Z,98805
2018-05-09T22:06:32.774Z,98801
2018-05-09T22:09:01.653Z,98802
2018-05-09T22:11:30.549Z,98812
2018-05-09T22:13:59.430Z,98806
2018-05-09T22:16:27.548Z,98814
2018-05-09T22:18:56.509Z,98807
2018-05-09T22:21:25.453Z,98807
2018-05-09T22:23:53.567Z,98811
2018-05-09T22:26:21.672Z,98806
2018-05-09T22:28:50.621Z,98802
2018-05-09T22:31:19.452Z,98807
2018-05-09T22:33:48.349Z,98806
2018-05-09T22:36:17.254Z,98806
2018-05-09T22:38:46.135Z,98804
2018-05-09T22:41:14.246Z,98806
2018-05-09T22:43:42.386Z,98798
2018-05-09T22:46:10.494Z,98799
2018-05-09T22:48:38.605Z,98793
2018-05-09T22:51:06.724Z,98792
2018-05-09T22:53:35.618Z,98781
2018-05-09T22:56:04.520Z,98777
2018-05-09T22:58:33.399Z,98777
2018-05-09T23:01:01.545Z,98773
2018-05-09T23:03:29.654Z,98767
2018-05-09T23:05:57.786Z,98768
2018-05-09T23:08:25.905Z,98765
2018-05-09T23:10:54.023Z,98759
2018-05-09T23:13:22.140Z,98753
2018-05-09T23:15:50.240Z,98748
2018-05-09T23:18:18.390Z,98751
2018-05-09T23:20:46.501Z,98745
2018-05-09T23:23:15.408Z,98741
2018-05-09T23:25:44.329Z,98744
2018-05-09T23:28:12.463Z,98741
2018-05-09T23:30:40.603Z,98731
2018-05-09T23:33:08.713Z,98727
2018-05-09T23:35:36.845Z,98736
2018-05-09T23:38:04.952Z,98732
2018-05-09T23:40:33.114Z,98736
2018-05-09T23:43:01.205Z,98735
2018-05-09T23:45:29.344Z,98729
2018-05-09T23:47:57.464Z,98735
2018-05-09T23:50:25.580Z,98725
2018-05-09T23:52:54.477Z,98730
2018-05-09T23:55:23.352Z,98731
2018-05-09T23:57:51.472Z,98735
